Time;durP1;ratioP1;P1;durP2;ratioP2;P2;SDS_P1;SDS_P2;PMS_P1;PMS_P2;Temp;Humidity;BMP_temperature;BMP_pressure;BME280_temperature;BME280_humidity;BME280_pressure;Samples;Min_cycle;Max_cycle;Signal;HPM_P1;HPM_P2
2021/12/19 00:02:01;;;;;;;12.50;5.05;;;9.30;99.90;;;;;;5033643;28;20627;-73
2021/12/19 00:04:37;;;;;;;16.25;7.30;;;9.30;99.90;;;;;;5032186;28;20204;-72
2021/12/19 00:09:48;;;;;;;13.15;5.45;;;9.30;99.90;;;;;;5025857;28;20642;-72
2021/12/19 00:12:15;;;;;;;11.60;6.50;;;9.30;99.90;;;;;;5035108;28;20205;-72
2021/12/19 00:14:42;;;;;;;14.23;6.00;;;9.20;99.90;;;;;;5034494;28;20200;-72
2021/12/19 00:17:09;;;;;;;9.38;5.32;;;9.20;99.90;;;;;;5033279;28;20200;-72
2021/12/19 00:19:38;;;;;;;10.63;5.60;;;9.20;99.90;;;;;;5033152;28;20326;-72
2021/12/19 00:22:05;;;;;;;14.10;6.68;;;9.20;99.90;;;;;;5029066;28;20216;-72
2021/12/19 00:24:32;;;;;;;14.48;6.20;;;9.20;99.90;;;;;;5033622;28;20287;-74
2021/12/19 00:26:59;;;;;;;11.77;7.00;;;9.20;99.90;;;;;;5033618;28;20587;-71
2021/12/19 00:29:27;;;;;;;10.40;7.35;;;9.20;99.90;;;;;;5033361;28;20295;-72
2021/12/19 00:31:54;;;;;;;12.77;6.43;;;9.20;99.90;;;;;;5031874;28;20223;-72
2021/12/19 00:34:21;;;;;;;11.55;5.95;;;9.30;99.90;;;;;;5033926;28;20223;-73
2021/12/19 00:36:49;;;;;;;14.57;5.95;;;9.30;99.90;;;;;;5034327;28;20212;-72
2021/12/19 00:39:16;;;;;;;9.25;4.20;;;9.20;99.90;;;;;;5033577;28;20303;-73
2021/12/19 00:41:43;;;;;;;12.27;4.68;;;9.20;99.90;;;;;;5033299;28;20306;-72
2021/12/19 00:44:11;;;;;;;15.85;5.60;;;9.20;99.90;;;;;;5033744;28;20204;-72
2021/12/19 00:46:48;;;;;;;9.07;5.65;;;9.30;99.90;;;;;;5033626;28;20500;-72
2021/12/19 00:49:16;;;;;;;20.80;5.97;;;9.20;99.90;;;;;;5030753;28;20197;-72
2021/12/19 00:51:43;;;;;;;15.98;6.00;;;9.20;99.90;;;;;;5020805;28;20324;-71
2021/12/19 00:54:12;;;;;;;17.38;5.05;;;9.20;99.90;;;;;;5033623;28;20196;-71
2021/12/19 00:56:41;;;;;;;9.27;4.40;;;9.20;99.90;;;;;;5027342;28;20584;-72
2021/12/19 00:59:08;;;;;;;13.02;4.75;;;9.20;99.90;;;;;;5033057;28;20293;-71
2021/12/19 01:01:36;;;;;;;11.38;4.20;;;9.20;99.90;;;;;;5025390;28;20311;-72
2021/12/19 01:04:05;;;;;;;15.40;4.05;;;9.20;99.90;;;;;;5033574;28;20275;-72
2021/12/19 01:06:32;;;;;;;12.48;4.40;;;9.20;99.90;;;;;;5033348;28;20291;-73
2021/12/19 01:08:59;;;;;;;14.63;3.63;;;9.20;99.90;;;;;;5033498;28;20295;-72
2021/12/19 01:11:28;;;;;;;7.97;3.80;;;9.20;99.90;;;;;;5030183;28;20244;-72
2021/12/19 01:13:56;;;;;;;7.32;3.70;;;9.30;99.90;;;;;;5032947;28;20605;-72
2021/12/19 01:16:23;;;;;;;8.63;2.97;;;9.30;99.90;;;;;;5032669;28;20663;-73
2021/12/19 01:18:50;;;;;;;7.97;2.90;;;9.30;99.90;;;;;;5032646;28;20209;-73
2021/12/19 01:21:17;;;;;;;6.25;2.95;;;9.30;99.90;;;;;;5031581;28;20267;-73
2021/12/19 01:23:44;;;;;;;13.27;4.15;;;9.40;99.90;;;;;;5033344;28;20223;-73
2021/12/19 01:26:12;;;;;;;4.38;2.75;;;9.30;99.90;;;;;;5031567;28;20230;-72
2021/12/19 01:28:42;;;;;;;4.78;3.47;;;9.30;99.90;;;;;;5032501;28;20205;-72
2021/12/19 01:31:09;;;;;;;8.57;3.65;;;9.30;99.90;;;;;;5030615;28;20216;-72
2021/12/19 01:33:36;;;;;;;8.77;3.40;;;9.30;99.90;;;;;;5032626;28;20232;-73
2021/12/19 01:36:04;;;;;;;8.48;3.75;;;9.30;99.90;;;;;;5032866;28;20236;-73
2021/12/19 01:38:31;;;;;;;9.00;3.65;;;9.20;99.90;;;;;;5026422;28;20220;-73
2021/12/19 01:40:58;;;;;;;10.75;3.60;;;9.20;99.90;;;;;;5031850;28;20263;-74
2021/12/19 01:43:25;;;;;;;8.07;3.50;;;9.20;99.90;;;;;;5032572;28;20286;-72
2021/12/19 01:45:55;;;;;;;12.68;3.88;;;9.20;99.90;;;;;;5032910;28;20303;-72
2021/12/19 01:48:23;;;;;;;12.02;4.57;;;9.20;99.90;;;;;;5032231;28;20204;-72
2021/12/19 01:50:50;;;;;;;15.63;4.80;;;9.20;99.90;;;;;;5031873;28;20220;-72
2021/12/19 01:53:18;;;;;;;10.82;3.75;;;9.20;99.90;;;;;;5032592;28;20299;-73
2021/12/19 01:55:47;;;;;;;10.68;3.38;;;9.20;99.90;;;;;;5032936;28;20689;-73
2021/12/19 01:58:16;;;;;;;16.65;5.63;;;9.20;99.90;;;;;;5032319;28;20262;-73
2021/12/19 02:00:45;;;;;;;8.70;3.33;;;9.20;99.90;;;;;;5031480;28;20230;-72
2021/12/19 02:03:13;;;;;;;12.60;3.22;;;9.20;99.90;;;;;;5028371;28;20200;-72
2021/12/19 02:05:41;;;;;;;12.80;4.47;;;9.20;99.90;;;;;;5032120;28;20654;-71
2021/12/19 02:08:10;;;;;;;8.20;2.97;;;9.20;99.90;;;;;;5032262;28;20279;-73
2021/12/19 02:10:37;;;;;;;7.97;3.33;;;9.10;99.90;;;;;;5030919;28;20294;-73
2021/12/19 02:13:07;;;;;;;8.32;3.47;;;9.10;99.90;;;;;;5032150;28;20211;-72
2021/12/19 02:15:36;;;;;;;14.80;3.67;;;9.10;99.90;;;;;;5026306;28;20240;-72
2021/12/19 02:18:08;;;;;;;7.53;3.75;;;9.10;99.90;;;;;;5031952;28;20287;-74
2021/12/19 02:20:38;;;;;;;10.52;3.60;;;9.10;99.90;;;;;;5024329;28;20307;-71
2021/12/19 02:23:06;;;;;;;8.10;3.08;;;9.10;99.90;;;;;;5031882;28;20239;-71
2021/12/19 02:25:33;;;;;;;10.30;4.00;;;9.20;99.90;;;;;;5031426;28;20204;-72
2021/12/19 02:28:00;;;;;;;7.88;4.28;;;9.20;99.90;;;;;;5032223;28;20239;-71
2021/12/19 02:30:27;;;;;;;8.73;2.80;;;9.10;99.90;;;;;;5030889;28;20238;-72
2021/12/19 02:32:54;;;;;;;11.30;5.00;;;9.10;99.90;;;;;;5031677;28;20283;-72
2021/12/19 02:35:25;;;;;;;11.75;5.40;;;9.10;99.90;;;;;;5031912;28;20210;-72
2021/12/19 02:49:21;;;;;;;9.80;3.90;;;9.10;99.90;;;;;;5031916;28;20200;-73
2021/12/19 02:51:48;;;;;;;11.15;4.35;;;9.00;99.90;;;;;;5035642;28;20278;-72
2021/12/19 02:54:16;;;;;;;8.57;4.57;;;9.10;99.90;;;;;;5036026;28;20353;-71
2021/12/19 02:56:44;;;;;;;10.85;4.13;;;9.20;99.90;;;;;;5036310;28;20277;-71
2021/12/19 02:59:11;;;;;;;12.00;4.05;;;9.10;99.90;;;;;;5033139;28;20731;-72
2021/12/19 03:01:38;;;;;;;10.85;5.30;;;9.00;99.90;;;;;;5035303;28;20315;-72
2021/12/19 03:04:06;;;;;;;18.75;5.28;;;9.00;99.90;;;;;;5029174;28;20231;-72
2021/12/19 03:06:34;;;;;;;17.27;6.88;;;9.00;99.90;;;;;;5035591;28;20575;-72
2021/12/19 03:09:08;;;;;;;12.48;5.00;;;9.10;99.90;;;;;;5035633;28;20291;-72
2021/12/19 03:19:51;;;;;;;17.67;6.22;;;9.20;99.90;;;;;;5027587;28;20663;-71
2021/12/19 03:22:18;;;;;;;14.50;6.20;;;9.20;99.90;;;;;;5035398;28;20562;-72
2021/12/19 03:24:45;;;;;;;16.48;5.47;;;9.20;99.90;;;;;;5035087;28;20299;-72
2021/12/19 03:27:14;;;;;;;11.85;5.85;;;9.20;99.90;;;;;;5035514;28;20295;-72
2021/12/19 03:29:44;;;;;;;13.18;6.35;;;9.20;99.90;;;;;;5034095;28;20660;-72
2021/12/19 03:32:11;;;;;;;13.63;7.30;;;9.20;99.90;;;;;;5031570;28;20596;-72
2021/12/19 03:34:38;;;;;;;15.05;7.43;;;9.30;99.90;;;;;;5035246;28;20644;-72
2021/12/19 03:37:05;;;;;;;13.52;7.13;;;9.30;99.90;;;;;;5035179;28;20288;-72
2021/12/19 03:39:44;;;;;;;14.80;8.07;;;9.40;99.90;;;;;;5027932;28;20281;-72
2021/12/19 03:42:12;;;;;;;19.10;8.77;;;9.30;99.90;;;;;;5035511;28;20271;-73
2021/12/19 03:44:41;;;;;;;14.90;7.97;;;9.30;99.90;;;;;;5035302;28;20200;-72
2021/12/19 03:47:08;;;;;;;17.42;8.75;;;9.30;99.90;;;;;;5035135;28;20242;-72
2021/12/19 03:49:35;;;;;;;14.60;8.45;;;9.30;99.90;;;;;;5034431;28;20236;-72
2021/12/19 03:52:02;;;;;;;23.35;10.43;;;9.20;99.90;;;;;;5029207;28;20259;-73
2021/12/19 03:54:29;;;;;;;17.20;7.85;;;9.20;99.90;;;;;;5035198;28;20247;-72
2021/12/19 03:56:56;;;;;;;16.90;8.65;;;9.20;99.90;;;;;;5034812;28;20291;-72
2021/12/19 03:59:26;;;;;;;22.40;11.15;;;9.20;99.90;;;;;;5034572;28;20224;-72
2021/12/19 04:01:54;;;;;;;16.15;11.15;;;9.20;99.90;;;;;;5027494;28;20252;-73
2021/12/19 04:04:21;;;;;;;20.58;11.02;;;9.30;99.90;;;;;;5034209;28;20297;-73
2021/12/19 04:06:48;;;;;;;27.48;12.60;;;9.30;99.90;;;;;;5034714;28;20294;-73
2021/12/19 04:09:15;;;;;;;30.98;12.60;;;9.30;99.90;;;;;;5034241;28;20196;-73
2021/12/19 04:11:42;;;;;;;23.98;9.35;;;9.40;99.90;;;;;;5025863;28;20223;-72
2021/12/19 04:14:09;;;;;;;20.02;10.23;;;9.30;99.90;;;;;;5034412;28;20646;-72
2021/12/19 04:16:36;;;;;;;17.75;8.38;;;9.30;99.90;;;;;;5029657;28;20287;-73
2021/12/19 04:19:04;;;;;;;15.20;8.88;;;9.20;99.90;;;;;;5033829;28;20254;-72
2021/12/19 04:21:31;;;;;;;15.70;8.85;;;9.20;99.90;;;;;;5031197;28;20595;-72
2021/12/19 04:23:58;;;;;;;14.60;9.20;;;9.20;99.90;;;;;;5034480;28;20247;-73
2021/12/19 04:26:25;;;;;;;15.30;7.30;;;9.20;99.90;;;;;;5034704;28;20283;-73
2021/12/19 04:28:52;;;;;;;12.18;7.15;;;9.20;99.90;;;;;;5034091;28;20348;-72
2021/12/19 04:31:19;;;;;;;11.30;7.05;;;9.20;99.90;;;;;;5030595;28;20314;-72
2021/12/19 04:33:46;;;;;;;14.10;8.73;;;9.20;99.90;;;;;;5034182;28;20295;-72
2021/12/19 04:36:21;;;;;;;23.00;7.57;;;9.20;99.90;;;;;;5034155;28;20250;-72
2021/12/19 04:50:49;;;;;;;14.70;8.25;;;9.30;99.90;;;;;;5033298;28;20184;-72
2021/12/19 04:56:14;;;;;;;8.40;3.65;;;9.20;99.90;;;;;;5026535;28;20204;-72
2021/12/19 04:59:09;;;;;;;13.35;4.40;;;9.20;99.90;;;;;;5033405;28;20262;-72
2021/12/19 05:04:53;;;;;;;13.90;5.55;;;9.20;99.90;;;;;;5027971;28;20257;-72
2021/12/19 05:15:53;;;;;;;11.23;5.28;;;9.10;99.90;;;;;;4984975;28;20201;-71
2021/12/19 05:18:23;;;;;;;9.63;5.00;;;9.10;99.90;;;;;;4988234;28;20210;-72
2021/12/19 05:20:55;;;;;;;12.77;5.07;;;9.10;99.90;;;;;;5006176;28;20587;-71
2021/12/19 05:23:27;;;;;;;15.77;4.90;;;9.10;99.90;;;;;;5033432;28;20200;-71
2021/12/19 05:25:56;;;;;;;12.38;5.65;;;9.10;99.90;;;;;;5030765;28;20714;-71
2021/12/19 05:28:23;;;;;;;13.38;5.90;;;9.10;99.90;;;;;;5032865;28;20283;-73
2021/12/19 05:30:51;;;;;;;17.13;6.20;;;9.10;99.90;;;;;;5032676;28;20303;-73
2021/12/19 05:33:18;;;;;;;12.63;5.63;;;9.10;99.90;;;;;;5033670;28;20293;-71
2021/12/19 05:36:08;;;;;;;11.38;6.72;;;9.10;99.90;;;;;;5020406;28;20244;-72
2021/12/19 05:46:50;;;;;;;12.57;7.03;;;9.10;99.90;;;;;;5032671;28;20199;-72
2021/12/19 05:49:17;;;;;;;18.08;7.15;;;9.20;99.90;;;;;;5032583;28;20573;-72
2021/12/19 05:51:43;;;;;;;14.80;7.32;;;9.30;99.90;;;;;;5027446;28;20231;-71
2021/12/19 05:54:11;;;;;;;16.95;7.68;;;9.30;99.90;;;;;;5031785;28;20296;-72
2021/12/19 05:56:40;;;;;;;15.90;7.25;;;9.30;99.90;;;;;;5031974;28;20294;-72
2021/12/19 05:59:08;;;;;;;9.90;4.97;;;9.20;99.90;;;;;;5032589;28;20278;-72
2021/12/19 06:01:35;;;;;;;18.75;6.15;;;9.10;99.90;;;;;;5024915;28;20228;-73
2021/12/19 06:04:02;;;;;;;8.18;3.67;;;9.10;99.90;;;;;;5032909;28;20220;-73
2021/12/19 06:06:29;;;;;;;9.00;3.30;;;9.00;99.90;;;;;;5032580;28;20214;-73
2021/12/19 06:08:56;;;;;;;7.93;2.55;;;8.90;99.90;;;;;;5032654;28;20291;-72
2021/12/19 06:11:23;;;;;;;6.65;2.58;;;8.90;99.90;;;;;;5031836;28;20600;-72
2021/12/19 06:13:51;;;;;;;7.75;2.65;;;9.00;99.90;;;;;;5031860;28;20325;-73
2021/12/19 06:16:18;;;;;;;8.27;2.95;;;8.90;99.90;;;;;;5031324;28;20653;-72
2021/12/19 06:18:47;;;;;;;8.63;3.13;;;8.90;99.90;;;;;;5032832;28;20275;-71
2021/12/19 06:21:13;;;;;;;9.18;3.20;;;8.90;99.90;;;;;;5030631;28;20236;-71
2021/12/19 06:23:40;;;;;;;6.85;2.70;;;9.00;99.90;;;;;;5032507;28;20649;-71
2021/12/19 06:26:10;;;;;;;8.57;3.22;;;8.90;99.90;;;;;;5028840;28;20275;-72
2021/12/19 06:28:37;;;;;;;4.70;2.65;;;8.90;99.90;;;;;;5032622;28;20254;-72
2021/12/19 06:31:06;;;;;;;9.35;3.33;;;9.00;99.90;;;;;;5031038;28;20303;-71
2021/12/19 06:33:33;;;;;;;11.45;3.90;;;8.90;99.90;;;;;;5032418;28;20287;-71
2021/12/19 06:36:00;;;;;;;12.18;4.85;;;9.00;99.90;;;;;;5031792;28;20228;-71
2021/12/19 06:38:27;;;;;;;9.80;4.10;;;8.80;99.90;;;;;;5031750;28;20700;-71
2021/12/19 06:40:54;;;;;;;14.05;4.25;;;8.90;99.90;;;;;;5025417;28;20339;-71
2021/12/19 06:43:21;;;;;;;11.75;4.57;;;8.90;99.90;;;;;;5032400;28;20674;-73
2021/12/19 06:45:48;;;;;;;9.27;5.15;;;8.80;99.90;;;;;;5032455;28;20273;-73
2021/12/19 06:48:18;;;;;;;14.38;5.32;;;8.90;99.90;;;;;;5032220;28;20647;-73
2021/12/19 06:50:45;;;;;;;9.45;4.40;;;8.80;99.90;;;;;;5031982;28;20231;-73
2021/12/19 06:53:12;;;;;;;6.93;3.92;;;8.80;99.90;;;;;;5025054;28;20218;-73
2021/12/19 06:55:38;;;;;;;8.68;4.95;;;8.80;99.90;;;;;;5032623;28;20604;-73
2021/12/19 06:58:05;;;;;;;11.57;4.97;;;8.70;99.90;;;;;;5032478;28;20200;-72
2021/12/19 07:00:32;;;;;;;9.13;4.13;;;8.70;99.90;;;;;;5031268;28;20316;-73
2021/12/19 07:02:59;;;;;;;13.82;4.35;;;8.70;99.90;;;;;;5032278;28;20295;-73
2021/12/19 07:05:28;;;;;;;11.73;3.70;;;8.70;99.90;;;;;;5032376;28;20578;-70
2021/12/19 07:07:54;;;;;;;14.45;4.10;;;8.70;99.90;;;;;;5031899;28;20318;-72
2021/12/19 07:10:22;;;;;;;7.70;3.80;;;8.60;99.90;;;;;;5031359;28;20216;-72
2021/12/19 07:12:49;;;;;;;7.22;2.78;;;8.60;99.90;;;;;;5031890;28;20295;-72
2021/12/19 07:15:18;;;;;;;7.70;3.80;;;8.60;99.90;;;;;;5032227;28;20203;-72
2021/12/19 07:17:46;;;;;;;9.15;3.78;;;8.70;99.90;;;;;;5026379;28;20227;-72
2021/12/19 07:20:13;;;;;;;13.10;3.92;;;8.70;99.90;;;;;;5030973;28;20642;-71
2021/12/19 07:22:41;;;;;;;10.70;4.85;;;8.80;99.90;;;;;;5031684;28;20294;-72
2021/12/19 07:25:14;;;;;;;8.60;3.65;;;8.70;99.90;;;;;;5032271;28;20201;-71
2021/12/19 07:27:40;;;;;;;11.27;4.03;;;8.70;99.90;;;;;;5035544;28;20192;-71
2021/12/19 07:30:09;;;;;;;8.43;3.92;;;8.70;99.90;;;;;;5035010;28;20220;-71
2021/12/19 07:32:37;;;;;;;7.00;3.40;;;8.70;99.90;;;;;;5035551;28;20208;-71
2021/12/19 07:35:07;;;;;;;8.30;3.63;;;8.70;99.90;;;;;;5035345;28;20212;-71
2021/12/19 07:37:36;;;;;;;8.32;3.90;;;8.80;99.90;;;;;;5035037;28;20208;-71
2021/12/19 07:40:13;;;;;;;5.85;3.85;;;8.70;99.90;;;;;;5033469;28;20311;-71
2021/12/19 07:42:40;;;;;;;11.02;3.90;;;8.70;99.90;;;;;;5034821;28;20207;-70
2021/12/19 07:45:08;;;;;;;13.98;4.07;;;8.70;99.90;;;;;;5034435;28;20207;-70
2021/12/19 07:47:35;;;;;;;12.13;4.10;;;8.70;99.90;;;;;;5033396;28;20209;-71
2021/12/19 07:50:02;;;;;;;9.05;3.72;;;8.70;99.90;;;;;;5034539;28;20568;-70
2021/12/19 07:52:29;;;;;;;9.75;4.13;;;8.60;99.90;;;;;;5034860;28;20950;-71
2021/12/19 07:54:56;;;;;;;10.43;4.82;;;8.70;99.90;;;;;;5035194;28;20203;-71
2021/12/19 07:57:24;;;;;;;13.57;3.92;;;8.60;99.90;;;;;;5035090;28;20206;-73
2021/12/19 07:59:51;;;;;;;7.22;3.38;;;8.80;99.90;;;;;;5034477;28;20212;-73
2021/12/19 08:02:18;;;;;;;6.57;3.20;;;8.80;99.90;;;;;;5029943;28;20282;-74
2021/12/19 08:04:46;;;;;;;12.18;3.45;;;8.80;99.90;;;;;;5027426;28;20201;-73
2021/12/19 08:07:13;;;;;;;9.70;3.58;;;8.80;99.90;;;;;;5040510;28;20200;-72
2021/12/19 08:09:58;;;;;;;7.25;3.50;;;8.80;99.90;;;;;;5034019;28;20298;-73
2021/12/19 08:12:26;;;;;;;8.88;3.80;;;8.80;99.90;;;;;;5034100;28;20240;-73
2021/12/19 08:14:53;;;;;;;11.18;3.40;;;8.80;99.90;;;;;;5034648;28;20315;-73
2021/12/19 08:17:21;;;;;;;6.40;3.38;;;8.80;99.90;;;;;;5032759;28;20208;-72
2021/12/19 08:19:48;;;;;;;22.95;4.80;;;8.80;99.90;;;;;;5026402;28;20259;-73
2021/12/19 08:22:16;;;;;;;12.30;4.20;;;8.90;99.90;;;;;;5034496;28;20648;-73
2021/12/19 08:24:45;;;;;;;9.23;3.28;;;8.90;99.90;;;;;;5034419;28;20292;-73
2021/12/19 08:27:12;;;;;;;7.05;4.15;;;8.90;99.90;;;;;;5034644;28;20200;-72
2021/12/19 08:29:40;;;;;;;11.60;4.90;;;8.90;99.90;;;;;;5032799;28;20291;-73
2021/12/19 08:32:08;;;;;;;10.75;4.88;;;8.90;99.90;;;;;;5034023;28;20266;-73
2021/12/19 08:34:35;;;;;;;14.60;4.60;;;8.90;99.90;;;;;;5033543;28;20223;-73
2021/12/19 08:37:03;;;;;;;16.67;6.32;;;9.00;99.90;;;;;;5033373;28;20200;-73
2021/12/19 08:39:31;;;;;;;10.68;4.93;;;9.00;99.90;;;;;;5029844;28;20267;-72
2021/12/19 08:41:58;;;;;;;17.38;6.35;;;9.00;99.90;;;;;;5033985;28;20309;-72
2021/12/19 08:44:25;;;;;;;14.25;5.00;;;8.90;99.90;;;;;;5033749;28;20731;-72
2021/12/19 08:46:54;;;;;;;9.15;3.75;;;9.00;99.90;;;;;;5033448;28;20300;-73
2021/12/19 08:49:21;;;;;;;7.30;3.50;;;9.00;99.90;;;;;;5033645;28;20306;-70
2021/12/19 08:51:48;;;;;;;7.63;3.63;;;9.10;99.90;;;;;;5033122;28;20307;-71
2021/12/19 08:54:15;;;;;;;14.57;5.43;;;9.00;99.90;;;;;;5031512;28;20283;-72
2021/12/19 08:56:42;;;;;;;16.75;4.50;;;9.00;99.90;;;;;;5026835;28;20295;-72
2021/12/19 08:59:11;;;;;;;8.55;4.70;;;9.00;99.90;;;;;;5033709;28;20283;-72
2021/12/19 09:01:39;;;;;;;12.55;3.92;;;9.00;99.90;;;;;;5031158;28;20227;-74
2021/12/19 09:04:07;;;;;;;14.30;3.92;;;8.90;99.90;;;;;;5033775;28;20256;-71
2021/12/19 09:06:34;;;;;;;15.13;4.15;;;9.00;99.90;;;;;;5030088;28;20308;-73
2021/12/19 09:09:03;;;;;;;10.48;3.72;;;9.10;99.90;;;;;;5029849;28;20238;-74
2021/12/19 09:11:30;;;;;;;11.80;3.83;;;9.10;99.90;;;;;;5031714;28;20251;-75
2021/12/19 09:13:56;;;;;;;11.88;3.80;;;9.10;99.90;;;;;;5033322;28;20283;-72
2021/12/19 09:16:26;;;;;;;9.30;3.05;;;9.10;99.90;;;;;;5033962;28;20205;-72
2021/12/19 09:18:54;;;;;;;11.02;4.38;;;9.20;99.90;;;;;;5034516;28;20623;-73
2021/12/19 09:21:22;;;;;;;13.65;4.95;;;9.30;99.90;;;;;;5033549;28;20321;-71
2021/12/19 09:23:50;;;;;;;8.60;2.72;;;9.30;99.90;;;;;;5026066;28;20287;-73
2021/12/19 09:26:17;;;;;;;12.07;4.10;;;9.20;99.90;;;;;;5033568;28;20200;-73
2021/12/19 09:28:44;;;;;;;11.85;4.28;;;9.20;99.90;;;;;;5033572;28;20208;-71
2021/12/19 09:31:11;;;;;;;12.10;4.88;;;9.20;99.90;;;;;;5027179;28;20252;-69
2021/12/19 09:33:39;;;;;;;11.45;3.75;;;9.20;99.90;;;;;;5032369;28;20283;-71
2021/12/19 09:36:06;;;;;;;8.82;3.80;;;9.10;99.90;;;;;;5032848;28;20285;-70
2021/12/19 09:38:35;;;;;;;8.25;3.60;;;9.10;99.90;;;;;;5033505;28;20287;-71
2021/12/19 09:41:12;;;;;;;8.27;3.35;;;9.10;99.90;;;;;;5026957;28;20667;-71
2021/12/19 09:43:45;;;;;;;7.55;3.42;;;9.20;99.90;;;;;;5031192;28;20200;-72
2021/12/19 09:46:15;;;;;;;9.60;3.35;;;9.20;99.90;;;;;;5032873;28;20224;-71
2021/12/19 09:48:43;;;;;;;11.68;3.58;;;9.20;99.90;;;;;;5029685;28;20616;-70
2021/12/19 09:51:13;;;;;;;4.30;2.38;;;9.30;99.90;;;;;;5036591;28;20307;-73
2021/12/19 09:53:41;;;;;;;9.35;3.38;;;9.30;99.90;;;;;;5036155;28;20617;-71
2021/12/19 09:56:09;;;;;;;11.35;3.72;;;9.40;99.90;;;;;;5028585;28;20572;-72
2021/12/19 09:58:37;;;;;;;6.53;3.55;;;9.50;99.90;;;;;;5032902;28;20205;-73
2021/12/19 10:01:06;;;;;;;14.00;5.35;;;9.50;99.90;;;;;;5031951;28;20318;-69
2021/12/19 10:03:35;;;;;;;20.55;9.02;;;9.50;99.90;;;;;;5032888;28;20210;-73
2021/12/19 10:06:18;;;;;;;12.18;5.18;;;9.50;99.90;;;;;;5032680;28;20287;-70
2021/12/19 10:08:49;;;;;;;13.02;5.80;;;9.50;99.90;;;;;;5030567;28;20237;-72
2021/12/19 10:11:44;;;;;;;14.07;8.50;;;9.40;99.90;;;;;;5031521;28;20220;-72
2021/12/19 10:14:25;;;;;;;14.00;4.15;;;9.50;99.90;;;;;;5031181;28;20605;-71
2021/12/19 10:16:52;;;;;;;11.45;4.90;;;9.50;99.90;;;;;;5030193;28;20738;-71
2021/12/19 10:19:19;;;;;;;13.60;4.97;;;9.60;99.90;;;;;;5031759;28;20287;-78
2021/12/19 10:21:46;;;;;;;10.55;4.65;;;9.60;99.90;;;;;;5031615;28;20236;-74
2021/12/19 10:24:35;;;;;;;13.13;4.03;;;9.60;99.90;;;;;;5032336;28;20284;-72
2021/12/19 10:27:02;;;;;;;16.80;4.80;;;9.60;99.90;;;;;;5032712;28;20347;-72
2021/12/19 10:29:47;;;;;;;18.40;4.38;;;9.60;99.90;;;;;;5031536;28;20213;-74
2021/12/19 10:32:14;;;;;;;23.15;4.68;;;9.50;99.90;;;;;;5032470;28;20197;-71
2021/12/19 10:34:41;;;;;;;13.98;3.80;;;9.50;99.90;;;;;;5024996;28;20286;-71
2021/12/19 10:37:08;;;;;;;15.32;4.65;;;9.60;99.90;;;;;;5024851;28;20284;-71
2021/12/19 10:39:41;;;;;;;14.95;5.13;;;9.60;99.90;;;;;;5031406;28;20211;-74
2021/12/19 10:42:11;;;;;;;19.25;5.45;;;9.60;99.90;;;;;;5031047;28;20231;-72
2021/12/19 10:47:25;;;;;;;14.65;4.78;;;9.60;99.90;;;;;;5027966;28;20212;-71
2021/12/19 10:49:53;;;;;;;13.02;5.00;;;9.60;99.90;;;;;;5030690;28;20279;-75
2021/12/19 10:52:35;;;;;;;19.40;6.97;;;9.60;99.90;;;;;;5027093;28;20533;-76
2021/12/19 10:55:06;;;;;;;19.70;7.30;;;9.60;99.90;;;;;;5030633;28;20208;-75
2021/12/19 10:57:35;;;;;;;13.07;5.38;;;9.70;99.90;;;;;;5022670;28;20204;-78
2021/12/19 11:00:05;;;;;;;13.80;5.43;;;9.60;99.90;;;;;;5018489;28;20204;-74
2021/12/19 11:02:36;;;;;;;14.20;5.68;;;9.60;99.90;;;;;;5023098;28;20296;-74
2021/12/19 11:05:05;;;;;;;20.02;6.20;;;9.60;99.90;;;;;;5030588;28;20283;-74
2021/12/19 11:07:31;;;;;;;17.33;5.75;;;9.70;99.90;;;;;;5034090;28;20756;-73
2021/12/19 11:09:58;;;;;;;16.10;7.15;;;9.70;99.90;;;;;;5032900;28;20303;-72
2021/12/19 11:12:27;;;;;;;13.95;4.45;;;9.80;99.90;;;;;;5029328;28;20635;-74
2021/12/19 11:14:54;;;;;;;14.00;5.22;;;9.80;99.90;;;;;;5033286;28;20201;-72
2021/12/19 11:17:25;;;;;;;11.20;4.57;;;9.90;99.90;;;;;;5033910;28;20550;-75
2021/12/19 11:19:53;;;;;;;14.18;4.00;;;9.90;99.90;;;;;;5033603;28;20232;-74
2021/12/19 11:22:26;;;;;;;14.40;5.53;;;9.90;99.90;;;;;;5033731;28;20234;-76
2021/12/19 11:24:56;;;;;;;16.08;4.88;;;9.90;99.90;;;;;;5032739;28;20216;-75
2021/12/19 11:27:23;;;;;;;18.25;4.63;;;10.00;99.90;;;;;;5030830;28;20296;-75
2021/12/19 11:29:54;;;;;;;14.70;4.68;;;10.00;99.90;;;;;;5032553;28;20228;-75
2021/12/19 11:32:30;;;;;;;12.63;4.53;;;10.00;99.90;;;;;;5034127;28;20298;-74
2021/12/19 11:35:03;;;;;;;13.57;4.20;;;10.00;99.90;;;;;;5031425;28;20254;-73
2021/12/19 11:37:34;;;;;;;18.70;4.13;;;10.00;99.90;;;;;;5024758;28;20297;-73
2021/12/19 11:40:02;;;;;;;24.45;4.65;;;10.10;99.90;;;;;;5024889;28;20213;-74
2021/12/19 11:42:32;;;;;;;12.45;3.85;;;10.10;99.90;;;;;;5027826;28;20324;-73
2021/12/19 11:45:21;;;;;;;15.38;3.95;;;10.00;99.90;;;;;;5022283;28;20213;-74
2021/12/19 11:47:52;;;;;;;11.32;4.22;;;10.10;99.90;;;;;;5023239;28;20309;-75
2021/12/19 11:50:22;;;;;;;12.30;3.75;;;10.10;99.90;;;;;;5019405;28;20793;-78
2021/12/19 11:52:51;;;;;;;18.70;5.05;;;10.10;99.90;;;;;;5027361;28;20213;-73
2021/12/19 11:55:23;;;;;;;17.70;4.35;;;10.00;99.90;;;;;;5031700;28;20276;-75
2021/12/19 11:58:28;;;;;;;12.48;4.50;;;9.90;99.90;;;;;;5025048;28;20205;-74
2021/12/19 12:01:05;;;;;;;9.65;3.17;;;9.90;99.90;;;;;;5031896;28;20592;-75
2021/12/19 12:03:38;;;;;;;16.17;3.50;;;9.90;99.90;;;;;;5032469;28;20231;-75
2021/12/19 12:06:25;;;;;;;19.65;3.45;;;10.00;99.90;;;;;;5028660;28;20555;-76
2021/12/19 12:09:12;;;;;;;12.38;3.17;;;10.00;99.90;;;;;;5032017;28;20204;-79
2021/12/19 12:11:41;;;;;;;15.50;3.67;;;10.10;99.90;;;;;;5032516;28;20345;-73
2021/12/19 12:14:22;;;;;;;12.13;3.53;;;10.00;99.90;;;;;;5032517;28;20296;-74
2021/12/19 12:16:56;;;;;;;5.53;2.95;;;10.10;99.90;;;;;;5026782;28;20266;-73
2021/12/19 12:19:42;;;;;;;9.93;2.65;;;10.00;99.90;;;;;;5029836;28;20232;-74
2021/12/19 12:22:43;;;;;;;15.52;4.13;;;10.10;99.90;;;;;;5028839;28;20221;-73
2021/12/19 12:25:20;;;;;;;12.27;2.85;;;10.10;99.90;;;;;;5029977;28;20196;-72
2021/12/19 12:27:50;;;;;;;16.52;2.88;;;10.00;99.90;;;;;;5037559;28;20255;-74
2021/12/19 12:30:23;;;;;;;12.23;2.83;;;10.10;99.90;;;;;;5034908;28;20220;-75
2021/12/19 12:32:51;;;;;;;12.60;2.65;;;10.10;99.90;;;;;;5033433;28;20241;-71
2021/12/19 12:35:19;;;;;;;9.20;3.08;;;10.00;99.90;;;;;;5034725;28;20228;-74
2021/12/19 12:37:48;;;;;;;8.60;2.95;;;10.00;99.90;;;;;;5025776;28;20205;-72
2021/12/19 12:40:28;;;;;;;6.40;1.95;;;10.00;99.90;;;;;;5031631;28;20303;-74
2021/12/19 12:43:09;;;;;;;8.48;3.38;;;10.00;99.90;;;;;;5029634;28;20208;-73
2021/12/19 12:46:00;;;;;;;5.70;2.47;;;10.00;99.90;;;;;;5033929;28;20204;-74
2021/12/19 12:48:38;;;;;;;5.43;1.50;;;10.00;99.90;;;;;;5033829;28;20283;-73
2021/12/19 12:51:08;;;;;;;14.55;2.55;;;10.00;99.90;;;;;;5032399;28;20223;-71
2021/12/19 12:53:38;;;;;;;10.60;2.33;;;9.90;99.90;;;;;;5030170;28;20214;-71
2021/12/19 12:56:10;;;;;;;9.73;2.95;;;9.90;99.90;;;;;;5033327;28;20535;-75
2021/12/19 12:58:47;;;;;;;15.52;5.53;;;9.80;99.90;;;;;;5033023;28;20196;-73
2021/12/19 13:01:26;;;;;;;9.75;3.47;;;9.80;99.90;;;;;;5029863;28;20224;-74
2021/12/19 13:04:07;;;;;;;5.55;2.60;;;9.90;99.90;;;;;;5021831;28;20208;-73
2021/12/19 13:06:57;;;;;;;8.57;2.22;;;9.90;99.90;;;;;;5033395;28;20250;-74
2021/12/19 13:09:27;;;;;;;6.63;2.22;;;9.90;99.90;;;;;;5032543;28;20671;-75
2021/12/19 13:12:00;;;;;;;6.60;3.22;;;9.90;99.90;;;;;;5033261;28;20296;-73
2021/12/19 13:14:29;;;;;;;9.57;2.53;;;9.80;99.90;;;;;;5026840;28;20202;-73
2021/12/19 13:17:00;;;;;;;11.02;3.85;;;9.80;99.90;;;;;;5021518;28;20247;-72
2021/12/19 13:19:52;;;;;;;19.48;5.65;;;9.90;99.90;;;;;;5026108;28;20271;-74
2021/12/19 13:22:26;;;;;;;8.27;4.18;;;10.00;99.90;;;;;;5033090;28;20228;-72
2021/12/19 13:24:55;;;;;;;8.68;6.70;;;10.20;99.90;;;;;;5017316;28;20766;-74
2021/12/19 13:27:25;;;;;;;12.93;6.03;;;10.20;99.90;;;;;;5023234;28;20246;-72
2021/12/19 13:30:01;;;;;;;10.95;2.85;;;10.20;99.90;;;;;;5017652;28;20224;-73
2021/12/19 13:32:34;;;;;;;5.55;3.00;;;10.10;99.90;;;;;;5021994;28;20200;-73
2021/12/19 13:35:06;;;;;;;12.55;3.90;;;10.10;99.90;;;;;;5027534;28;20203;-76
2021/12/19 13:37:34;;;;;;;8.15;4.22;;;10.00;99.90;;;;;;5027301;28;20294;-73
2021/12/19 13:40:09;;;;;;;8.02;3.00;;;10.00;99.90;;;;;;5032197;28;20250;-74
2021/12/19 13:42:45;;;;;;;9.32;4.50;;;9.90;99.90;;;;;;5030971;28;20209;-76
2021/12/19 13:45:41;;;;;;;12.15;2.97;;;9.90;99.90;;;;;;5026867;28;20261;-74
2021/12/19 13:48:13;;;;;;;5.05;2.80;;;9.90;99.90;;;;;;5019342;28;20244;-75
2021/12/19 13:50:45;;;;;;;8.02;3.58;;;9.90;99.90;;;;;;5032275;28;20286;-75
2021/12/19 13:53:14;;;;;;;14.82;3.30;;;9.90;99.90;;;;;;5032841;28;20315;-73
2021/12/19 13:55:44;;;;;;;8.20;3.45;;;9.90;99.90;;;;;;5032759;28;20585;-75
2021/12/19 13:58:11;;;;;;;13.25;4.95;;;9.90;99.90;;;;;;5032544;28;20570;-72
2021/12/19 14:00:41;;;;;;;8.27;3.28;;;9.90;99.90;;;;;;5022969;28;20303;-73
2021/12/19 14:03:08;;;;;;;16.60;3.05;;;9.90;99.90;;;;;;5032084;28;20313;-73